Belle Vernon, PA

4:52 PM EST on December 06, 2016 (GMT -0500)
Gibsonton | | Change Station

Elev 823 ft 40.13 °N, 79.88 °W | Updated 30 seconds ago

Light Rain
Light Rain Mist
39.2 °F
Feels Like 39 °F
N
0.0
Wind Variable Wind from NE

Today
High -- | Low -- °F
--% Chance of Precip.
Yesterday
High -- | Low -- °F
Precip. -- in
Pressure 29.75 in
Visibility 3.0 miles
Clouds Mostly Cloudy 900 ft
Overcast 2700 ft
Windchill 39 °F
Dew Point 38 °F
Humidity 98%
Rainfall 0.04 in
Snow Depth Not available.
7:27 AM 4:53 PM
Waxing Crescent, 45% visible
METAR KAGC 062053Z 16007KT 3SM -RA BR BKN009 OVC027 03/01 A2971 RMK AO2 SLP073 P0010 60031 T00330011 55001
Pressure 29.75 in
Visibility 3.0 miles
Clouds Mostly Cloudy 900 ft
Overcast 2700 ft
Windchill 39 °F
Dew Point 38 °F
Humidity 98%
Rainfall 0.04 in
Snow Depth Not available.
7:27 AM 4:53 PM
Waxing Crescent, 45% visible
METAR KAGC 062053Z 16007KT 3SM -RA BR BKN009 OVC027 03/01 A2971 RMK AO2 SLP073 P0010 60031 T00330011 55001

10-Day Weather Forecast

Almanac

Astronomy

Dec. 06, 2016 Rise Set
Actual Time
Civil Twilight
Nautical Twilight
Astronomical Twilight
Moon
Length of Visible Light
Length of Day
Tomorrow will be .
, % of the Moon is Illuminated

Today's Extremes

State Highs State Lows

Community

WunderPhotos

Upload Photos

1,956,033 photos uploaded!

WunderBlog® & News

Nearby

Air Quality

  Air Quality AQ Index Pollutant
Not available.

Snow Depth

Station Depth Elevation

Earthquake Activity

City Distance Mag. Time & Date
Minimum magnitude displayed is 2.5.

Coastal Water Temperatures

Place Temperature

Stations

Nearby Weather Stations

Station Location Temp. Windchill Dew Point Humidity Wind Precip. Elev Updated Type
                   

Watches & Warnings

There are currently no watches in effect.